Ann Arbor, MI

8:14 AM EST on February 28, 2017 (GMT -0500)
Washington and Crest | | Change Station

Elev 879 ft 42.28 °N, 83.77 °W | Updated 0 second ago

Rain
Rain
39.7 °F
Feels Like 40 °F
N
0.0
Wind Variable Wind from SSE
Gusts 0.0 mph

Today
High -- | Low -- °F
--% Chance of Precip.
Yesterday
High -- | Low -- °F
Precip. -- in
Pressure 30.04 in
Visibility 3.0 miles
Clouds Scattered Clouds 400 ft
Mostly Cloudy 4400 ft
Overcast 6000 ft
Windchill 40 °F
Dew Point 39 °F
Humidity 96%
Rainfall 0.00 in
Snow Depth Not available.
7:11 AM 6:24 PM
Waxing Crescent, 5% visible
SPECI KARB 281306Z 11007KT 3SM -RA BR SCT004 BKN044 OVC060 04/04 A3004 RMK AO2 P0000 T00440044
Pressure 30.04 in
Visibility 3.0 miles
Clouds Scattered Clouds 400 ft
Mostly Cloudy 4400 ft
Overcast 6000 ft
Windchill 40 °F
Dew Point 39 °F
Humidity 96%
Rainfall 0.00 in
Snow Depth Not available.
7:11 AM 6:24 PM
Waxing Crescent, 5% visible
SPECI KARB 281306Z 11007KT 3SM -RA BR SCT004 BKN044 OVC060 04/04 A3004 RMK AO2 P0000 T00440044

Get Your Daily Forecast Email!

Thanks for signing up!

Be on the lookout for a verification email in your inbox.

You'll start receiving the daily forecast at 8 AM.

×

10-Day Weather Forecast

Almanac

Astronomy

Feb. 28, 2017 Rise Set
Actual Time
Civil Twilight
Nautical Twilight
Astronomical Twilight
Moon
Length of Visible Light
Length of Day
Tomorrow will be .
, % of the Moon is Illuminated

Today's Extremes

State Highs State Lows

Community

WunderPhotos

Upload Photos

1,962,540 photos uploaded!

WunderBlog® & News

Nearby

Air Quality

  Air Quality AQ Index Pollutant
Not available.

Snow Depth

Station Depth Elevation

Earthquake Activity

City Distance Mag. Time & Date
Minimum magnitude displayed is 2.5.

Coastal Water Temperatures

Place Temperature

Stations

Nearby Weather Stations

Station Location Temp. Windchill Dew Point Humidity Wind Precip. Elev Updated Type
                   

Watches & Warnings

There are currently no watches in effect.